»·PEaware :: N256Z KPSP-KBUR

N256Z :: KPSP-KBUR

FLIGHT INFORMATION

Flight Status: Arrived
Operator: Privately registered:
United States
More flights under this callsign
Pilot: Gregory A. (9731)
Aircraft: PIPER PA-46-500TP MALIBU MERIDIAN
(P46T)
More flights by this aircraft type
Origin: KPSP Palm Springs Intl
United States
Destination: KBUR Bob Hope-Burbank
United States
More flights between these airports :: More routes between these airports
Route: +CATH1 PSP V388 DEWAY POM VNY
File this flight plan on PilotEdge
Remarks:
Altitude:
(Current/Filed)
160ft
Speed:
(Current/Filed)
240kts
Departed: 19-Jul-18 06:33 PM
Arrived: 19-Jul-18 07:30 PM
Distance/Time
Traveled:
95nm/0:57
Distance/Time
To Go:
Arrived

Flight Plot

Page will automatically refresh every two minutes.

Flight plan parsing failed; only flown route is shown


Map Options




Map Legend


Flown Route
Filed Route
Departure Airport
Arrival Airport
Navaid (VOR, NDB)
Fix

Horizontal Profiles

Position Reports

Time Latitude Longitude Heading Altitude Ground
Speed
19-Jul-18 18:05 33.821061 -116.505767 253 481ft 0kts
19-Jul-18 18:06 33.821061 -116.505767 253 481ft 0kts
19-Jul-18 18:07 33.821061 -116.505767 253 481ft 0kts
19-Jul-18 18:08 33.821061 -116.505767 253 481ft 0kts
19-Jul-18 18:09 33.821061 -116.505767 253 481ft 0kts
19-Jul-18 18:10 33.821061 -116.505768 253 481ft 0kts
19-Jul-18 18:11 33.821060 -116.505770 253 481ft 0kts
19-Jul-18 18:12 33.821060 -116.505772 253 481ft 0kts
19-Jul-18 18:13 33.821060 -116.505773 253 481ft 0kts
19-Jul-18 18:14 33.821060 -116.505773 253 481ft 0kts
19-Jul-18 18:15 33.821060 -116.505773 253 481ft 0kts
19-Jul-18 18:16 33.821060 -116.505773 253 481ft 0kts
19-Jul-18 18:17 33.821060 -116.505773 253 481ft 0kts
19-Jul-18 18:18 33.821060 -116.505773 253 481ft 0kts
19-Jul-18 18:19 33.821059 -116.505774 253 481ft 0kts
19-Jul-18 18:20 33.821059 -116.505776 253 481ft 0kts
19-Jul-18 18:21 33.821058 -116.505778 253 481ft 0kts
19-Jul-18 18:22 33.821058 -116.505780 253 481ft 0kts
19-Jul-18 18:23 33.821057 -116.505782 253 481ft 0kts
19-Jul-18 18:24 33.821057 -116.505784 253 481ft 0kts
19-Jul-18 18:25 33.821056 -116.505786 253 481ft 0kts
19-Jul-18 18:26 33.821327 -116.505727 91 481ft 0kts
19-Jul-18 18:27 33.822172 -116.505538 21 481ft 14kts
19-Jul-18 18:28 33.821556 -116.502434 143 481ft 14kts
19-Jul-18 18:29 33.818514 -116.499348 87 481ft 14kts
19-Jul-18 18:30 33.818524 -116.498901 88 481ft 0kts
19-Jul-18 18:31 33.818524 -116.498901 88 481ft 0kts
19-Jul-18 18:32 33.818524 -116.498901 88 481ft 0kts
19-Jul-18 18:33 33.818530 -116.498719 85 481ft 11kts
19-Jul-18 18:34 33.832052 -116.510017 320 739ft 110kts
19-Jul-18 18:35 33.859145 -116.536009 320 2378ft 140kts
19-Jul-18 18:36 33.895689 -116.570495 320 4046ft 184kts
19-Jul-18 18:37 33.937005 -116.592100 37 5863ft 161kts
19-Jul-18 18:38 33.932416 -116.541019 115 7896ft 170kts
19-Jul-18 18:39 33.909189 -116.487083 120 9928ft 189kts
19-Jul-18 18:40 33.879482 -116.433305 131 11869ft 191kts
19-Jul-18 18:41 33.847912 -116.376419 110 12006ft 217kts
19-Jul-18 18:42 33.873110 -116.333456 342 12002ft 182kts
19-Jul-18 18:43 33.884861 -116.384832 265 12006ft 173kts
19-Jul-18 18:44 33.881556 -116.442970 265 12001ft 173kts
19-Jul-18 18:45 33.888822 -116.500347 283 12000ft 174kts
19-Jul-18 18:46 33.902477 -116.557201 285 12008ft 181kts
19-Jul-18 18:47 33.917262 -116.615787 285 12018ft 181kts
19-Jul-18 18:48 33.932160 -116.674729 285 12036ft 188kts
19-Jul-18 18:49 33.945885 -116.730419 281 12055ft 194kts
19-Jul-18 18:50 33.955547 -116.795690 277 12070ft 198kts
19-Jul-18 18:51 33.964010 -116.860944 277 12079ft 198kts
19-Jul-18 18:52 33.972438 -116.927206 277 12075ft 200kts
19-Jul-18 18:53 33.980873 -116.993975 277 12071ft 202kts
19-Jul-18 18:54 33.989374 -117.061594 277 12062ft 201kts
19-Jul-18 18:55 33.997423 -117.125891 277 11840ft 198kts
19-Jul-18 18:56 34.005624 -117.191692 277 10843ft 197kts
19-Jul-18 18:57 34.013723 -117.256920 277 9841ft 195kts
19-Jul-18 18:58 34.021617 -117.320788 277 9075ft 185kts
19-Jul-18 18:59 34.029069 -117.381378 277 9045ft 182kts
19-Jul-18 19:00 34.036455 -117.441685 277 9045ft 183kts
19-Jul-18 19:01 34.043948 -117.503124 277 9049ft 186kts
19-Jul-18 19:02 34.051511 -117.565355 277 9046ft 187kts
19-Jul-18 19:03 34.059038 -117.627528 277 9046ft 187kts
19-Jul-18 19:04 34.066534 -117.689646 277 9045ft 187kts
19-Jul-18 19:05 34.074025 -117.751752 277 9046ft 186kts
19-Jul-18 19:06 34.083935 -117.813099 282 9046ft 186kts
19-Jul-18 19:07 34.095204 -117.868305 283 8348ft 182kts
19-Jul-18 19:08 34.107105 -117.925778 282 7354ft 176kts
19-Jul-18 19:09 34.119056 -117.983096 282 6354ft 176kts
19-Jul-18 19:10 34.130381 -118.038039 283 6019ft 155kts
19-Jul-18 19:11 34.140216 -118.085682 282 6018ft 140kts
19-Jul-18 19:12 34.149503 -118.130652 282 6021ft 136kts
19-Jul-18 19:13 34.158553 -118.174615 282 6020ft 132kts
19-Jul-18 19:14 34.156821 -118.213057 261 6018ft 127kts
19-Jul-18 19:15 34.151363 -118.257428 261 5694ft 151kts
19-Jul-18 19:16 34.145144 -118.312413 266 5055ft 175kts
19-Jul-18 19:17 34.144685 -118.372220 269 4402ft 180kts
19-Jul-18 19:18 34.144532 -118.432191 269 4020ft 171kts
19-Jul-18 19:19 34.144570 -118.487459 269 4021ft 160kts
19-Jul-18 19:20 34.144670 -118.537723 269 4025ft 149kts
19-Jul-18 19:21 34.144750 -118.589287 269 4057ft 154kts
19-Jul-18 19:22 34.144581 -118.640507 269 4129ft 153kts
19-Jul-18 19:23 34.147160 -118.691712 306 4121ft 154kts
19-Jul-18 19:24 34.183441 -118.692593 50 4145ft 170kts
19-Jul-18 19:25 34.203084 -118.637947 79 3831ft 178kts
19-Jul-18 19:26 34.202166 -118.579156 97 3823ft 171kts
19-Jul-18 19:27 34.199591 -118.527071 90 3554ft 138kts
19-Jul-18 19:28 34.199476 -118.479983 91 2532ft 135kts
19-Jul-18 19:29 34.198784 -118.435113 90 1832ft 134kts
19-Jul-18 19:30 34.198191 -118.391139 90 1151ft 128kts
19-Jul-18 19:31 34.197834 -118.359627 90 725ft 13kts
19-Jul-18 19:32 34.198360 -118.357968 0 725ft 0kts
19-Jul-18 19:33 34.198877 -118.358714 275 725ft 11kts
19-Jul-18 19:34 34.199782 -118.360493 238 725ft 0kts
19-Jul-18 19:35 34.199782 -118.360493 238 725ft 0kts
19-Jul-18 19:36 34.199782 -118.360493 238 725ft 0kts
19-Jul-18 19:37 34.199782 -118.360493 238 725ft 0kts

Navigation Log

Ident Type
Flight plan parsing failed, navigation log unavailable